createdAt,value
2019-06-08T00:03:28.949Z,0.70
2019-06-08T00:08:23.015Z,0.83
2019-06-08T00:13:17.034Z,0.70
2019-06-08T00:18:09.573Z,0.60
2019-06-08T00:23:03.691Z,0.83
2019-06-08T00:27:57.866Z,0.73
2019-06-08T00:32:51.318Z,0.63
2019-06-08T00:37:44.914Z,0.67
2019-06-08T00:42:38.298Z,0.77
2019-06-08T00:47:46.976Z,0.60
2019-06-08T00:52:25.595Z,0.80
2019-06-08T00:57:19.693Z,0.97
2019-06-08T01:02:12.573Z,0.77
2019-06-08T01:07:05.960Z,0.93
2019-06-08T01:11:59.356Z,0.70
2019-06-08T01:16:53.014Z,0.70
2019-06-08T01:21:46.405Z,0.80
2019-06-08T01:26:40.552Z,0.80
2019-06-08T01:31:33.945Z,0.90
2019-06-08T01:36:28.819Z,0.50
2019-06-08T01:41:21.352Z,0.63
2019-06-08T01:46:14.509Z,0.80
2019-06-08T01:51:07.863Z,0.60
2019-06-08T01:56:02.350Z,0.90
2019-06-08T02:00:55.747Z,0.80
2019-06-08T02:05:49.251Z,0.53
2019-06-08T02:10:42.630Z,0.80
2019-06-08T02:15:36.183Z,0.90
2019-06-08T02:20:30.812Z,0.67
2019-06-08T02:25:25.472Z,0.80
2019-06-08T02:30:18.870Z,0.73
2019-06-08T02:35:12.333Z,0.50
2019-06-08T02:40:05.825Z,0.80
2019-06-08T02:44:59.221Z,1.00
2019-06-08T02:49:52.611Z,0.87
2019-06-08T02:54:46.004Z,0.70
2019-06-08T02:59:40.835Z,1.03
2019-06-08T03:04:36.425Z,0.60
2019-06-08T03:09:28.462Z,0.63
2019-06-08T03:14:21.903Z,0.40
2019-06-08T03:19:21.640Z,0.70
2019-06-08T03:24:08.902Z,0.40
2019-06-08T03:29:02.400Z,0.60
2019-06-08T03:33:56.737Z,0.50
2019-06-08T03:38:49.178Z,0.80
2019-06-08T03:43:42.805Z,0.70
2019-06-08T03:48:37.193Z,0.70
2019-06-08T03:53:29.898Z,0.67
2019-06-08T03:58:23.305Z,0.53
2019-06-08T04:03:16.982Z,1.17
2019-06-08T04:08:10.672Z,0.60
2019-06-08T04:13:04.355Z,0.70
2019-06-08T04:17:57.867Z,0.70
2019-06-08T04:22:51.724Z,0.87
2019-06-08T04:27:48.181Z,0.50
2019-06-08T04:32:42.878Z,0.63
2019-06-08T04:37:35.858Z,0.80
2019-06-08T04:42:35.791Z,0.60
2019-06-08T04:47:29.362Z,0.53
2019-06-08T04:52:23.062Z,0.50
2019-06-08T04:57:16.452Z,0.57
2019-06-08T05:02:09.845Z,0.57
2019-06-08T05:07:03.345Z,0.60
2019-06-08T05:11:56.746Z,0.50
2019-06-08T05:16:50.247Z,0.57
2019-06-08T05:21:43.629Z,0.80
2019-06-08T05:26:37.030Z,0.60
2019-06-08T05:31:30.424Z,0.60
2019-06-08T05:36:23.823Z,0.70
2019-06-08T05:41:17.247Z,0.70
2019-06-08T05:46:11.141Z,0.80
2019-06-08T05:51:04.679Z,0.90
2019-06-08T05:55:57.951Z,0.77
2019-06-08T06:00:51.352Z,0.97
2019-06-08T06:05:45.106Z,0.93
2019-06-08T06:10:38.799Z,0.90
2019-06-08T06:15:32.188Z,0.50
2019-06-08T06:20:25.603Z,0.73
2019-06-08T06:25:19.004Z,1.00
2019-06-08T06:30:12.392Z,0.70
2019-06-08T06:35:06.153Z,0.80
2019-06-08T06:39:59.551Z,1.20
2019-06-08T06:44:52.948Z,0.90
2019-06-08T06:49:46.488Z,0.80
2019-06-08T06:54:39.983Z,0.70
2019-06-08T06:59:33.802Z,0.77
2019-06-08T07:04:27.193Z,1.20
2019-06-08T07:09:20.616Z,0.90
2019-06-08T07:14:14.008Z,0.80
2019-06-08T07:19:07.638Z,0.90
2019-06-08T07:24:01.043Z,0.80
2019-06-08T07:28:55.351Z,0.90
2019-06-08T07:33:48.757Z,1.00
2019-06-08T07:38:41.808Z,0.97
2019-06-08T07:43:35.207Z,1.00
2019-06-08T07:48:28.626Z,0.77
2019-06-08T07:53:22.020Z,1.00
2019-06-08T07:58:15.426Z,1.20
2019-06-08T08:03:08.813Z,0.87
2019-06-08T08:08:02.195Z,1.20
2019-06-08T08:12:56.836Z,0.73
2019-06-08T08:17:49.287Z,0.90
2019-06-08T08:22:42.698Z,0.87
2019-06-08T08:27:37.561Z,0.80
2019-06-08T08:32:29.762Z,1.27
2019-06-08T08:37:23.410Z,1.00
2019-06-08T08:42:18.008Z,0.80
2019-06-08T08:47:10.478Z,1.10
2019-06-08T08:52:03.895Z,0.83
2019-06-08T08:57:01.797Z,1.20
2019-06-08T09:01:51.810Z,1.00
2019-06-08T09:06:44.115Z,0.90
2019-06-08T09:11:38.326Z,0.90
2019-06-08T09:16:30.935Z,1.13
2019-06-08T09:21:24.388Z,1.80
2019-06-08T09:26:18.188Z,1.63
2019-06-08T09:31:12.964Z,2.40
2019-06-08T09:36:07.714Z,2.50
2019-06-08T09:41:01.217Z,2.30
2019-06-08T09:45:53.735Z,2.73
2019-06-08T09:50:48.509Z,2.83
2019-06-08T09:55:41.471Z,3.10
2019-06-08T10:00:34.701Z,2.87
2019-06-08T10:05:28.663Z,3.07
2019-06-08T10:10:22.066Z,2.70
2019-06-08T10:15:17.746Z,3.90
2019-06-08T10:20:10.004Z,3.30
2019-06-08T10:25:06.594Z,2.70
2019-06-08T10:29:59.998Z,2.30
2019-06-08T10:34:50.723Z,2.60
2019-06-08T10:39:44.142Z,3.07
2019-06-08T10:44:38.199Z,2.50
2019-06-08T10:49:31.237Z,2.87
2019-06-08T10:54:24.650Z,2.40
2019-06-08T10:59:18.662Z,3.33
2019-06-08T11:04:11.857Z,3.57
2019-06-08T11:09:12.134Z,3.13
2019-06-08T11:14:00.935Z,3.70
2019-06-08T11:18:52.899Z,3.67
2019-06-08T11:24:01.788Z,3.57
2019-06-08T11:28:39.716Z,4.17
2019-06-08T11:33:33.163Z,4.77
2019-06-08T11:38:28.878Z,4.60
2019-06-08T11:43:20.059Z,3.93
2019-06-08T11:48:13.474Z,3.73
2019-06-08T11:53:07.834Z,4.17
2019-06-08T11:58:00.922Z,4.30
2019-06-08T12:02:54.214Z,4.37
2019-06-08T12:07:48.109Z,4.70
2019-06-08T12:12:41.339Z,4.70
2019-06-08T12:17:34.749Z,4.57
2019-06-08T12:22:28.174Z,4.63
2019-06-08T12:27:29.763Z,5.40
2019-06-08T12:32:16.272Z,4.50
2019-06-08T12:37:13.193Z,5.80
2019-06-08T12:42:01.798Z,4.87
2019-06-08T12:46:55.192Z,5.00
2019-06-08T12:51:51.692Z,4.70
2019-06-08T12:56:42.345Z,5.93
2019-06-08T13:01:38.032Z,4.30
2019-06-08T13:06:29.412Z,4.57
2019-06-08T13:11:23.071Z,5.23
2019-06-08T13:16:19.358Z,4.60
2019-06-08T13:21:21.783Z,5.67
2019-06-08T13:26:04.133Z,4.60
2019-06-08T13:30:58.168Z,5.20
2019-06-08T13:35:51.813Z,4.37
2019-06-08T13:40:45.216Z,4.33
2019-06-08T13:45:39.437Z,4.70
2019-06-08T13:50:32.069Z,4.50
2019-06-08T13:55:42.716Z,4.03
2019-06-08T14:00:21.824Z,4.20
2019-06-08T14:05:14.108Z,4.77
2019-06-08T14:10:06.880Z,3.70
2019-06-08T14:15:00.301Z,3.80
2019-06-08T14:19:54.069Z,3.40
2019-06-08T14:24:47.887Z,4.03
2019-06-08T14:29:41.304Z,4.20
2019-06-08T14:34:34.665Z,3.00
2019-06-08T14:39:31.071Z,3.43
2019-06-08T14:44:22.637Z,3.50
2019-06-08T14:49:15.040Z,3.40
2019-06-08T14:54:10.433Z,4.00
2019-06-08T14:59:01.836Z,2.97
2019-06-08T15:03:55.573Z,3.40
2019-06-08T15:08:50.409Z,3.30
2019-06-08T15:13:42.498Z,3.47
2019-06-08T15:18:35.917Z,3.60
2019-06-08T15:23:31.507Z,3.90
2019-06-08T15:28:22.764Z,4.00
2019-06-08T15:33:18.245Z,3.60
2019-06-08T15:38:09.638Z,3.53
2019-06-08T15:43:03.674Z,3.50
2019-06-08T15:47:58.746Z,3.87
2019-06-08T15:52:50.463Z,3.20
2019-06-08T15:57:50.434Z,3.77
2019-06-08T16:02:44.845Z,3.07
2019-06-08T16:07:38.552Z,3.67
2019-06-08T16:12:33.143Z,3.93
2019-06-08T16:17:25.506Z,3.77
2019-06-08T16:22:18.970Z,4.07
2019-06-08T16:27:12.823Z,4.17
2019-06-08T16:32:06.264Z,3.53
2019-06-08T16:36:59.802Z,3.80
2019-06-08T16:41:53.439Z,3.83
2019-06-08T16:46:46.861Z,3.77
2019-06-08T16:51:40.289Z,4.03
2019-06-08T16:56:34.117Z,3.97
2019-06-08T17:01:28.312Z,3.80
2019-06-08T17:06:20.530Z,3.60
2019-06-08T17:11:13.945Z,3.90
2019-06-08T17:16:07.365Z,3.80
2019-06-08T17:21:00.919Z,3.93
2019-06-08T17:25:54.446Z,3.53
2019-06-08T17:30:47.949Z,3.80
2019-06-08T17:35:42.339Z,2.50
2019-06-08T17:40:35.823Z,3.47
2019-06-08T17:45:28.178Z,3.40
2019-06-08T17:50:21.607Z,3.57
2019-06-08T17:55:15.024Z,3.33
2019-06-08T18:00:09.628Z,3.10
2019-06-08T18:05:02.395Z,3.77
2019-06-08T18:09:57.673Z,3.07
2019-06-08T18:14:49.374Z,3.00
2019-06-08T18:19:45.998Z,3.03
2019-06-08T18:24:39.215Z,3.70
2019-06-08T18:29:29.932Z,3.40
2019-06-08T18:34:23.346Z,3.40
2019-06-08T18:39:18.350Z,3.47
2019-06-08T18:44:10.979Z,3.10
2019-06-08T18:49:04.401Z,3.73
2019-06-08T18:54:08.661Z,2.97
2019-06-08T18:58:53.696Z,3.40
2019-06-08T19:03:47.775Z,3.60
2019-06-08T19:08:40.925Z,3.37
2019-06-08T19:13:32.238Z,3.60
2019-06-08T19:18:26.898Z,3.80
2019-06-08T19:23:21.321Z,3.43
2019-06-08T19:28:12.879Z,2.93
2019-06-08T19:33:07.326Z,3.07
2019-06-08T19:38:00.202Z,3.37
2019-06-08T19:42:59.919Z,3.53
2019-06-08T19:47:47.030Z,3.70
2019-06-08T19:52:43.762Z,3.77
2019-06-08T19:57:34.091Z,4.13
2019-06-08T20:02:27.637Z,3.80
2019-06-08T20:07:21.040Z,3.53
2019-06-08T20:12:14.797Z,3.37
2019-06-08T20:17:08.518Z,3.37
2019-06-08T20:22:01.966Z,4.10
2019-06-08T20:26:55.620Z,3.97
2019-06-08T20:31:51.444Z,4.43
2019-06-08T20:36:42.853Z,5.00
2019-06-08T20:41:37.635Z,4.80
2019-06-08T20:46:30.353Z,4.63
2019-06-08T20:51:23.759Z,3.70
2019-06-08T20:56:17.429Z,4.27
2019-06-08T21:01:10.613Z,4.30
2019-06-08T21:06:04.014Z,3.30
2019-06-08T21:11:01.719Z,4.27
2019-06-08T21:15:59.726Z,5.27
2019-06-08T21:20:49.270Z,4.17
2019-06-08T21:25:42.266Z,3.77
2019-06-08T21:30:37.801Z,4.37
2019-06-08T21:35:29.143Z,4.90
2019-06-08T21:40:23.366Z,5.00
2019-06-08T21:45:18.992Z,4.70
2019-06-08T21:50:10.195Z,4.50
2019-06-08T21:55:03.599Z,4.43
2019-06-08T22:00:18.762Z,4.37
2019-06-08T22:04:53.720Z,3.67
2019-06-08T22:09:43.939Z,3.97
2019-06-08T22:14:37.870Z,4.37
2019-06-08T22:19:30.752Z,4.83
2019-06-08T22:24:24.140Z,4.27
2019-06-08T22:29:18.216Z,4.17
2019-06-08T22:34:11.314Z,5.87
2019-06-08T22:39:07.848Z,3.80
2019-06-08T22:44:00.796Z,4.50
2019-06-08T22:48:55.346Z,4.03
2019-06-08T22:53:47.938Z,4.83
2019-06-08T22:58:40.948Z,4.47
2019-06-08T23:03:34.362Z,5.17
2019-06-08T23:08:28.185Z,3.83
2019-06-08T23:13:21.724Z,4.30
2019-06-08T23:18:17.645Z,4.17
2019-06-08T23:23:09.028Z,4.93
2019-06-08T23:28:03.281Z,4.50
2019-06-08T23:32:57.246Z,4.07
2019-06-08T23:37:49.875Z,4.47
2019-06-08T23:42:43.557Z,3.83
2019-06-08T23:47:41.185Z,4.90
2019-06-08T23:52:38.069Z,4.40
2019-06-08T23:57:30.779Z,4.03
